KAIZ

Lee C Fine Memorial Airport

Kaiser/Lake Ozark, Missouri, USA
METAR KAIZ 230956Z AUTO 00000KT 10SM CLR 06/06 A3024 RMK AO2 SLP238 T00610056
Observed Flight Rules
Oct-23 @ 09:56 UTC (32 minutes ago) Visual Flight Rules
Visibility Clouds
10 miles
  • Clear skies
Temperatures Readings
Current 6°C / 43°F
Dewpoint 6°C / 43°F
Humidity 100%
Altimeter 30.24" Hg
Pressure 1023.8 hPa
Elevation 265
METAR KAIZ 230956Z AUTO 00000KT 10SM CLR 06/06 A3024 RMK AO2 SLP238 T00610056
Observed Flight Rules
Oct-23 @ 09:56 UTC
(32 minutes ago)
VFR
Clouds
  • Clear skies
Temperature Dewpoint
6°C / 43°F 6°C / 43°F
Humidity Altimeter Pressure
100% 30.24" Hg 1023.8 hPa